Shin Puropan Maru — JG5508 — position and weather

sailwx.info

Track history (hours):
 
Tides and Currents Weather Stations Pressure Air Temp Water Temp Dewpoint Dewpoint Depression Visibility Wind Speed Wind Dir Waves Ship Positions

Shin Puropan Maru

Last reported at 2016-Dec-09 23:24 UTC. Time now 2016-Dec-10 12:53 UTC.
Position N 35°36' E 139°55'.

Length 66 m; draft 3.6 m.

Type: Ship (hazmat cat A). MMSI: 431100348.

Date/timePositionNaut miles runAvg speedWind from/ knotsBaromVisibWave heightAir tempDewpointWater temp
2016-Dec-09 23:24N 35°36' E 139°55'4 5.2
2016-Dec-09 22:33N 35°31' E 139°57'1111.3
2016-Dec-09 21:33N 35°24' E 139°46'1110.7
2016-Dec-09 20:33N 35°13' E 139°47'246 6.4
2016-Dec-08 06:03N 34°02' E 135°01'712.2
2016-Dec-08 05:30N 34°08' E 135°00'2210.5
2016-Dec-08 03:27N 34°28' E 135°09'1112.3
2016-Dec-08 02:33N 34°35' E 135°20'4 1.1
2016-Dec-07 22:33N 34°35' E 135°25'8 8.2
2016-Dec-07 21:33N 34°31' E 135°16'1211.7
2016-Dec-07 20:33N 34°23' E 135°06'1110.9
2016-Dec-07 19:32N 34°14' E 134°60'  
2016-Dec-05 12:30N 34°04' E 135°00'1213.0
2016-Dec-05 11:32N 34°16' E 134°59'1212.5
2016-Dec-05 10:33N 34°26' E 135°07'1312.9
2016-Dec-05 09:32N 34°34' E 135°19'5 1.3
2016-Dec-05 05:33N 34°35' E 135°26'2 2.3
2016-Dec-05 04:33N 34°35' E 135°23'0 0.0
2016-Dec-05 03:33N 34°35' E 135°23'0 0.0
2016-Dec-05 02:33N 34°35' E 135°23'8 7.9
2016-Dec-05 01:33N 34°31' E 135°16'1212.4
2016-Dec-05 00:33N 34°22' E 135°05'1211.5
2016-Dec-04 23:33N 34°11' E 135°00'3 0.1
2016-Dec-03 08:26N 34°08' E 134°60'2311.9
2016-Dec-03 06:32N 34°28' E 135°11'1312.5
2016-Dec-03 05:32N 34°36' E 135°23'3 0.6
2016-Dec-03 01:33N 34°35' E 135°25'2 2.2
2016-Dec-03 00:32N 34°36' E 135°23'0 0.0
2016-Dec-02 23:32N 34°36' E 135°23'5 5.6
2016-Dec-02 22:33N 34°33' E 135°18'1212.0
2016-Dec-02 21:33N 34°25' E 135°07'1211.2
2016-Dec-02 20:28N 34°14' E 134°60'6 0.2
2016-Dec-01 05:33N 34°08' E 134°60'2311.4
2016-Dec-01 03:32N 34°29' E 135°11'1312.0
2016-Dec-01 02:28N 34°36' E 135°23'2 0.6
2016-Nov-30 22:31N 34°35' E 135°25'2 1.0
2016-Nov-30 20:27N 34°35' E 135°23'0 0.0
2016-Nov-30 19:15N 34°35' E 135°23'0 0.0
2016-Nov-30 18:33N 34°35' E 135°23'0 0.0
2016-Nov-30 17:33N 34°35' E 135°23'0 0.0
2016-Nov-30 16:21N 34°35' E 135°23'5 6.8
2016-Nov-30 15:33N 34°32' E 135°18'1211.8
2016-Nov-30 14:33N 34°24' E 135°07'1210.9
2016-Nov-30 13:27N 34°14' E 134°60'  
Track history (hours):
 
Tides and Currents Weather Stations Pressure Air Temp Water Temp Dewpoint Dewpoint Depression Visibility Wind Speed Wind Dir Waves Ship Positions

Shin Puropan Maru

Last reported at 2016-Dec-09 23:24 UTC. Time now 2016-Dec-10 12:53 UTC.
Position N 35°36' E 139°55'.

Length 66 m; draft 3.6 m.

Type: Ship (hazmat cat A). MMSI: 431100348.

Date/timePositionNaut miles runAvg speedWind from/ knotsBaromVisibWave heightAir tempDewpointWater temp
2016-Dec-09 23:24N 35°36' E 139°55'4 5.2
2016-Dec-09 22:33N 35°31' E 139°57'1111.3
2016-Dec-09 21:33N 35°24' E 139°46'1110.7
2016-Dec-09 20:33N 35°13' E 139°47'246 6.4
2016-Dec-08 06:03N 34°02' E 135°01'712.2
2016-Dec-08 05:30N 34°08' E 135°00'2210.5
2016-Dec-08 03:27N 34°28' E 135°09'1112.3
2016-Dec-08 02:33N 34°35' E 135°20'4 1.1
2016-Dec-07 22:33N 34°35' E 135°25'8 8.2
2016-Dec-07 21:33N 34°31' E 135°16'1211.7
2016-Dec-07 20:33N 34°23' E 135°06'1110.9
2016-Dec-07 19:32N 34°14' E 134°60'  
2016-Dec-05 12:30N 34°04' E 135°00'1213.0
2016-Dec-05 11:32N 34°16' E 134°59'1212.5
2016-Dec-05 10:33N 34°26' E 135°07'1312.9
2016-Dec-05 09:32N 34°34' E 135°19'5 1.3
2016-Dec-05 05:33N 34°35' E 135°26'2 2.3
2016-Dec-05 04:33N 34°35' E 135°23'0 0.0
2016-Dec-05 03:33N 34°35' E 135°23'0 0.0
2016-Dec-05 02:33N 34°35' E 135°23'8 7.9
2016-Dec-05 01:33N 34°31' E 135°16'1212.4
2016-Dec-05 00:33N 34°22' E 135°05'1211.5
2016-Dec-04 23:33N 34°11' E 135°00'3 0.1
2016-Dec-03 08:26N 34°08' E 134°60'2311.9
2016-Dec-03 06:32N 34°28' E 135°11'1312.5
2016-Dec-03 05:32N 34°36' E 135°23'3 0.6
2016-Dec-03 01:33N 34°35' E 135°25'2 2.2
2016-Dec-03 00:32N 34°36' E 135°23'0 0.0
2016-Dec-02 23:32N 34°36' E 135°23'5 5.6
2016-Dec-02 22:33N 34°33' E 135°18'1212.0
2016-Dec-02 21:33N 34°25' E 135°07'1211.2
2016-Dec-02 20:28N 34°14' E 134°60'6 0.2
2016-Dec-01 05:33N 34°08' E 134°60'2311.4
2016-Dec-01 03:32N 34°29' E 135°11'1312.0
2016-Dec-01 02:28N 34°36' E 135°23'2 0.6
2016-Nov-30 22:31N 34°35' E 135°25'2 1.0
2016-Nov-30 20:27N 34°35' E 135°23'0 0.0
2016-Nov-30 19:15N 34°35' E 135°23'0 0.0
2016-Nov-30 18:33N 34°35' E 135°23'0 0.0
2016-Nov-30 17:33N 34°35' E 135°23'0 0.0
2016-Nov-30 16:21N 34°35' E 135°23'5 6.8
2016-Nov-30 15:33N 34°32' E 135°18'1211.8
2016-Nov-30 14:33N 34°24' E 135°07'1210.9
2016-Nov-30 13:27N 34°14' E 134°60'  

Dump ship's entire track history